Diane — WDF2440 — position and weather

sailwx.info

Track history (hours):
 
Tides and Currents Weather Stations Pressure Air Temp Water Temp Dewpoint Dewpoint Depression Visibility Wind Speed Wind Dir Waves Ship Positions

Diane

Owner: Enterprise Marine Services, LLC, San Antonio, TX. More information available from US FCC via Universal Licensing System and Coast Guard Vessel Documentation Center.

Last reported at 2018-Jun-09 04:29 UTC. Time now 2018-Jun-20 05:51 UTC.
Position N 29°47' W 095°05'.
Warning: this ship's position is 11 days out of date.

Length 24 m; draft 2.9 m.

Type: . MMSI: 367131150.

Date/timePositionNaut miles runAvg speedWind from/ knotsBaromVisibWave heightAir tempDewpointWater temp
2018-Jun-09 04:29N 29°47' W 095°05'1 1.0
2018-Jun-09 03:55N 29°47' W 095°04'1 3.0
2018-Jun-09 03:27N 29°46' W 095°05'  
2018-Jun-06 05:20N 29°47' W 095°05'1 0.0
2018-Jun-04 13:32N 29°47' W 095°06'0 0.0
2018-Jun-04 13:11N 29°47' W 095°06'0 0.0
2018-Jun-04 11:32N 29°47' W 095°06'0 0.0
2018-Jun-04 11:05N 29°47' W 095°06'0 0.0
2018-Jun-04 10:59N 29°47' W 095°06'0 0.0
2018-Jun-03 13:56N 29°47' W 095°06'0 0.0
2018-Jun-03 13:26N 29°47' W 095°06'0 0.0
2018-Jun-03 12:59N 29°47' W 095°06'0 0.0
2018-Jun-03 09:53N 29°47' W 095°06'0 0.0
2018-Jun-03 09:23N 29°47' W 095°06'0 0.0
2018-Jun-03 08:47N 29°47' W 095°06'0 0.0
2018-Jun-03 08:08N 29°47' W 095°06'0 0.0
2018-Jun-03 07:59N 29°47' W 095°06'0 0.0
2018-Jun-03 07:26N 29°47' W 095°06'0 0.0
2018-Jun-03 06:59N 29°47' W 095°06'0 0.0
2018-Jun-03 06:29N 29°47' W 095°06'0 0.0
2018-Jun-03 05:56N 29°47' W 095°06'0 0.0
2018-Jun-03 05:29N 29°47' W 095°06'0 0.0
2018-Jun-03 04:56N 29°47' W 095°06'0 0.0
2018-Jun-03 04:23N 29°47' W 095°06'0 0.0
2018-Jun-03 03:56N 29°47' W 095°06'0 0.0
2018-Jun-03 03:26N 29°47' W 095°06'1 0.0
2018-Jun-02 03:03N 29°46' W 095°06'1 4.5
2018-Jun-02 02:46N 29°46' W 095°05'  
2018-May-30 06:09N 29°47' W 095°06'0 0.0
2018-May-30 05:39N 29°47' W 095°06'0 0.0
2018-May-30 05:25N 29°47' W 095°06'1 2.8
2018-May-30 05:00N 29°46' W 095°05'  
Track history (hours):
 
Tides and Currents Weather Stations Pressure Air Temp Water Temp Dewpoint Dewpoint Depression Visibility Wind Speed Wind Dir Waves Ship Positions

Diane

Owner: Enterprise Marine Services, LLC, San Antonio, TX. More information available from US FCC via Universal Licensing System and Coast Guard Vessel Documentation Center.

Last reported at 2018-Jun-09 04:29 UTC. Time now 2018-Jun-20 05:51 UTC.
Position N 29°47' W 095°05'.
Warning: this ship's position is 11 days out of date.

Length 24 m; draft 2.9 m.

Type: . MMSI: 367131150.

Date/timePositionNaut miles runAvg speedWind from/ knotsBaromVisibWave heightAir tempDewpointWater temp
2018-Jun-09 04:29N 29°47' W 095°05'1 1.0
2018-Jun-09 03:55N 29°47' W 095°04'1 3.0
2018-Jun-09 03:27N 29°46' W 095°05'  
2018-Jun-06 05:20N 29°47' W 095°05'1 0.0
2018-Jun-04 13:32N 29°47' W 095°06'0 0.0
2018-Jun-04 13:11N 29°47' W 095°06'0 0.0
2018-Jun-04 11:32N 29°47' W 095°06'0 0.0
2018-Jun-04 11:05N 29°47' W 095°06'0 0.0
2018-Jun-04 10:59N 29°47' W 095°06'0 0.0
2018-Jun-03 13:56N 29°47' W 095°06'0 0.0
2018-Jun-03 13:26N 29°47' W 095°06'0 0.0
2018-Jun-03 12:59N 29°47' W 095°06'0 0.0
2018-Jun-03 09:53N 29°47' W 095°06'0 0.0
2018-Jun-03 09:23N 29°47' W 095°06'0 0.0
2018-Jun-03 08:47N 29°47' W 095°06'0 0.0
2018-Jun-03 08:08N 29°47' W 095°06'0 0.0
2018-Jun-03 07:59N 29°47' W 095°06'0 0.0
2018-Jun-03 07:26N 29°47' W 095°06'0 0.0
2018-Jun-03 06:59N 29°47' W 095°06'0 0.0
2018-Jun-03 06:29N 29°47' W 095°06'0 0.0
2018-Jun-03 05:56N 29°47' W 095°06'0 0.0
2018-Jun-03 05:29N 29°47' W 095°06'0 0.0
2018-Jun-03 04:56N 29°47' W 095°06'0 0.0
2018-Jun-03 04:23N 29°47' W 095°06'0 0.0
2018-Jun-03 03:56N 29°47' W 095°06'0 0.0
2018-Jun-03 03:26N 29°47' W 095°06'1 0.0
2018-Jun-02 03:03N 29°46' W 095°06'1 4.5
2018-Jun-02 02:46N 29°46' W 095°05'  
2018-May-30 06:09N 29°47' W 095°06'0 0.0
2018-May-30 05:39N 29°47' W 095°06'0 0.0
2018-May-30 05:25N 29°47' W 095°06'1 2.8
2018-May-30 05:00N 29°46' W 095°05'  

Dump ship's entire track history